Time;durP1;ratioP1;P1;durP2;ratioP2;P2;SDS_P1;SDS_P2;PMS_P1;PMS_P2;Temp;Humidity;BMP_temperature;BMP_pressure;BME280_temperature;BME280_humidity;BME280_pressure;Samples;Min_cycle;Max_cycle;Signal;HPM_P1;HPM_P2
2022/07/27 00:02:11;;;;;;;5.32;3.80;;;;;;;19.52;80.52;100133.19;5590122;31;34216;-68
2022/07/27 00:05:14;;;;;;;6.37;4.00;;;;;;;19.45;81.32;100135.19;5590300;31;34168;-68
2022/07/27 00:08:19;;;;;;;5.10;3.85;;;;;;;19.43;81.56;100134.56;5590183;31;34557;-68
2022/07/27 00:11:22;;;;;;;4.82;3.67;;;;;;;19.31;82.68;100133.72;5589362;31;32986;-67
2022/07/27 00:14:24;;;;;;;4.20;3.72;;;;;;;19.37;82.10;100142.72;5590267;31;35521;-68
2022/07/27 00:17:27;;;;;;;6.32;4.03;;;;;;;19.29;82.21;100143.06;5589210;31;34945;-68
2022/07/27 00:20:30;;;;;;;5.60;4.03;;;;;;;19.25;82.47;100136.50;5589205;31;34815;-67
2022/07/27 00:23:33;;;;;;;6.15;4.15;;;;;;;19.18;83.25;100136.59;5589940;31;34331;-69
2022/07/27 00:26:36;;;;;;;5.62;3.83;;;;;;;19.22;83.01;100143.16;5589185;31;32409;-67
2022/07/27 00:29:39;;;;;;;5.25;3.80;;;;;;;19.16;83.68;100135.19;5589917;31;34216;-66
2022/07/27 00:32:41;;;;;;;5.95;3.75;;;;;;;19.09;84.65;100133.41;5588871;31;34413;-68
2022/07/27 00:35:44;;;;;;;4.85;3.72;;;;;;;19.04;85.37;100129.78;5589702;31;34851;-68
2022/07/27 00:38:47;;;;;;;7.60;3.80;;;;;;;18.98;85.47;100136.06;5589912;31;34096;-67
2022/07/27 00:41:50;;;;;;;5.62;4.20;;;;;;;18.92;86.02;100137.00;5589133;31;33108;-67
2022/07/27 00:44:53;;;;;;;4.70;3.97;;;;;;;18.96;86.74;100132.78;5589787;31;34598;-68
2022/07/27 00:47:56;;;;;;;5.68;3.80;;;;;;;18.93;84.94;100141.28;5589800;31;34217;-68
2022/07/27 00:50:59;;;;;;;5.00;3.58;;;;;;;18.98;83.23;100138.75;5589735;31;35089;-68
2022/07/27 00:54:02;;;;;;;4.90;3.53;;;;;;;19.03;83.14;100141.56;5589747;31;34227;-68
2022/07/27 00:57:04;;;;;;;5.75;3.50;;;;;;;19.15;81.11;100136.25;5590115;31;34896;-67
2022/07/27 01:00:08;;;;;;;5.62;3.50;;;;;;;19.13;79.81;100136.47;5589865;31;34125;-68
2022/07/27 01:03:10;;;;;;;4.95;3.62;;;;;;;19.12;80.11;100140.22;5589708;31;34226;-67
2022/07/27 01:06:16;;;;;;;3.97;3.17;;;;;;;19.12;79.53;100135.63;5589619;31;34332;-68
2022/07/27 01:10:02;;;;;;;5.37;3.50;;;;;;;19.14;79.82;100139.97;5589771;31;34923;-68
2022/07/27 01:12:58;;;;;;;4.28;3.75;;;;;;;18.98;80.59;100138.75;5588379;31;34677;-68
2022/07/27 01:16:04;;;;;;;4.57;3.22;;;;;;;18.93;81.21;100138.59;5589743;31;34237;-68
2022/07/27 01:19:11;;;;;;;8.40;3.42;;;;;;;18.88;81.49;100133.91;5588375;31;32932;-69
2022/07/27 01:22:15;;;;;;;6.55;3.80;;;;;;;18.85;81.61;100141.63;5589555;31;34272;-67
2022/07/27 01:25:18;;;;;;;6.95;3.30;;;;;;;18.85;81.23;100139.75;5589449;31;34269;-66
2022/07/27 01:28:20;;;;;;;6.05;3.72;;;;;;;18.80;81.85;100130.72;5589069;31;34298;-68
2022/07/27 01:31:23;;;;;;;6.32;3.37;;;;;;;18.74;82.10;100139.69;5589423;31;34100;-68
2022/07/27 01:34:25;;;;;;;5.75;3.90;;;;;;;18.65;82.42;100139.19;5575537;31;33610;-69
2022/07/27 01:37:28;;;;;;;3.95;3.10;;;;;;;18.52;83.98;100132.09;5589550;31;34311;-68
2022/07/27 01:40:32;;;;;;;4.82;3.65;;;;;;;18.51;82.89;100143.88;5589550;31;34596;-68
2022/07/27 01:43:35;;;;;;;5.05;3.80;;;;;;;18.48;82.54;100136.28;5588358;31;33159;-68
2022/07/27 01:46:38;;;;;;;5.53;3.53;;;;;;;18.45;82.66;100152.84;5588483;31;33436;-68
2022/07/27 01:49:41;;;;;;;4.85;3.60;;;;;;;18.42;83.30;100139.03;5589213;31;34306;-68
2022/07/27 01:52:43;;;;;;;5.25;3.50;;;;;;;18.37;82.27;100139.72;5588516;31;33651;-68
2022/07/27 01:55:48;;;;;;;4.32;3.58;;;;;;;18.32;82.60;100141.44;5588346;31;35423;-68
2022/07/27 01:58:50;;;;;;;5.05;3.78;;;;;;;18.25;82.66;100141.50;5588267;31;34604;-67
2022/07/27 02:01:53;;;;;;;6.22;3.15;;;;;;;18.39;81.96;100136.81;5589321;31;34778;-67
2022/07/27 02:04:56;;;;;;;6.57;3.97;;;;;;;18.42;81.48;100139.03;5588992;31;34854;-67
2022/07/27 02:07:58;;;;;;;6.72;3.58;;;;;;;18.48;80.64;100140.84;5588963;31;34682;-68
2022/07/27 02:14:22;;;;;;;5.22;3.70;;;;;;;18.29;80.64;100126.59;5588849;31;34308;-68
2022/07/27 02:17:26;;;;;;;5.65;3.58;;;;;;;18.31;80.04;100137.91;5588746;31;34282;-69
2022/07/27 02:20:31;;;;;;;14.63;4.68;;;;;;;18.44;78.61;100145.84;5588111;31;33369;-68
2022/07/27 02:23:34;;;;;;;5.87;3.40;;;;;;;18.38;79.84;100138.69;5588975;31;34281;-69
2022/07/27 02:26:36;;;;;;;5.70;3.40;;;;;;;18.24;80.09;100145.25;5588653;31;34192;-68
2022/07/27 02:29:39;;;;;;;4.70;3.28;;;;;;;18.30;78.60;100135.47;5588146;31;34816;-69
2022/07/27 02:32:42;;;;;;;4.93;3.42;;;;;;;18.25;78.79;100142.31;5588512;31;34157;-69
2022/07/27 02:35:46;;;;;;;7.07;3.42;;;;;;;18.25;79.25;100146.84;5588268;31;34182;-68
2022/07/27 02:38:48;;;;;;;7.70;3.62;;;;;;;18.30;77.71;100138.16;5589086;31;34964;-68
2022/07/27 02:41:51;;;;;;;5.90;3.45;;;;;;;18.26;78.47;100143.13;5577290;31;32580;-68
2022/07/27 02:44:53;;;;;;;3.95;3.55;;;;;;;18.35;77.27;100141.78;5590820;31;35081;-69
2022/07/27 02:47:56;;;;;;;6.15;3.92;;;;;;;18.27;77.42;100144.78;5590812;31;34260;-68
2022/07/27 02:51:00;;;;;;;5.47;3.53;;;;;;;18.30;77.56;100147.00;5590115;31;33731;-68
2022/07/27 02:54:03;;;;;;;4.55;3.45;;;;;;;18.37;77.01;100142.41;5590858;31;34121;-68
2022/07/27 02:57:06;;;;;;;6.78;4.00;;;;;;;18.33;76.74;100151.12;5591141;31;34845;-69
2022/07/27 03:00:11;;;;;;;5.40;3.55;;;;;;;18.24;76.75;100154.12;5590755;31;34315;-69
2022/07/27 03:03:14;;;;;;;5.75;3.65;;;;;;;18.19;77.78;100153.97;5589725;31;33631;-68
2022/07/27 03:06:17;;;;;;;4.60;3.67;;;;;;;18.05;78.99;100159.69;5589910;31;34252;-69
2022/07/27 03:09:20;;;;;;;4.45;3.62;;;;;;;17.93;79.20;100150.72;5591033;31;34640;-69
2022/07/27 03:12:35;;;;;;;4.68;3.70;;;;;;;17.88;79.74;100163.97;5589986;31;34830;-69
2022/07/27 03:15:37;;;;;;;7.03;3.70;;;;;;;17.79;80.60;100166.94;5590552;31;34287;-69
2022/07/27 03:18:40;;;;;;;4.90;3.70;;;;;;;17.66;81.07;100169.75;5590207;31;34888;-69
2022/07/27 03:21:43;;;;;;;5.68;3.62;;;;;;;17.60;81.20;100167.94;5589795;31;34922;-69
2022/07/27 03:24:46;;;;;;;6.78;3.80;;;;;;;17.68;80.12;100158.78;5590481;31;35742;-69
2022/07/27 03:27:48;;;;;;;5.65;4.15;;;;;;;17.78;80.11;100161.78;5576752;31;32914;-68
2022/07/27 03:30:51;;;;;;;5.05;3.80;;;;;;;17.87;78.78;100147.03;5590413;31;34800;-68
2022/07/27 03:33:54;;;;;;;9.50;4.18;;;;;;;17.98;78.91;100148.19;5590337;31;34387;-68
2022/07/27 03:36:56;;;;;;;5.20;3.72;;;;;;;17.99;79.07;100152.50;5590303;31;34255;-70
2022/07/27 03:39:59;;;;;;;4.82;3.40;;;;;;;18.27;76.99;100154.69;5590392;31;35453;-69
2022/07/27 03:43:02;;;;;;;6.50;3.55;;;;;;;18.20;76.72;100152.09;5590648;31;34508;-69
2022/07/27 03:46:04;;;;;;;26.45;4.75;;;;;;;18.22;76.08;100150.81;5576639;31;32758;-68
2022/07/27 03:49:07;;;;;;;5.12;3.65;;;;;;;18.29;76.42;100152.63;5589498;31;34967;-68
2022/07/27 03:52:16;;;;;;;4.85;3.45;;;;;;;18.32;76.40;100157.53;5590203;31;34849;-68
2022/07/27 03:55:20;;;;;;;5.50;3.35;;;;;;;18.39;77.44;100161.81;5590206;31;34280;-68
2022/07/27 03:58:23;;;;;;;6.80;3.75;;;;;;;18.29;77.47;100163.38;5590175;31;34591;-68
2022/07/27 04:01:25;;;;;;;5.03;3.92;;;;;;;18.20;78.05;100166.31;5590131;31;35527;-69
2022/07/27 04:04:29;;;;;;;4.95;3.55;;;;;;;18.24;77.60;100159.50;5590105;31;34512;-69
2022/07/27 04:07:31;;;;;;;5.43;3.50;;;;;;;18.30;77.13;100163.13;5589080;31;32749;-69
2022/07/27 04:10:34;;;;;;;5.37;3.60;;;;;;;18.36;76.83;100167.59;5590429;31;34331;-68
2022/07/27 04:13:37;;;;;;;4.95;3.70;;;;;;;18.41;77.25;100158.87;5589811;31;34938;-68
2022/07/27 04:16:40;;;;;;;5.95;4.37;;;;;;;18.47;77.41;100160.69;5576509;31;34266;-68
2022/07/27 04:19:42;;;;;;;8.57;4.00;;;;;;;18.65;77.88;100152.63;5589086;31;34301;-68
2022/07/27 04:22:45;;;;;;;4.68;3.75;;;;;;;18.81;76.83;100152.00;5589934;31;34233;-68
2022/07/27 04:25:48;;;;;;;6.28;3.58;;;;;;;18.90;72.69;100157.91;5588927;31;34399;-68
2022/07/27 04:28:51;;;;;;;5.55;3.83;;;;;;;19.01;76.16;100170.56;5589176;31;34249;-68
2022/07/27 04:31:54;;;;;;;7.45;4.03;;;;;;;19.05;75.55;100185.19;5590002;31;34902;-68
2022/07/27 04:34:57;;;;;;;6.72;4.50;;;;;;;19.09;75.33;100181.81;5589508;31;34817;-69
2022/07/27 04:37:59;;;;;;;6.55;4.68;;;;;;;19.19;75.73;100178.59;5589075;31;34761;-68
2022/07/27 04:41:02;;;;;;;7.68;5.07;;;;;;;19.30;73.21;100169.75;5589677;31;34286;-68
2022/07/27 04:44:04;;;;;;;8.70;4.40;;;;;;;19.51;69.58;100174.59;5589562;31;34481;-68
2022/07/27 04:47:07;;;;;;;6.18;4.55;;;;;;;19.65;70.62;100174.41;5589759;31;34560;-68
2022/07/27 04:50:10;;;;;;;6.10;4.00;;;;;;;19.79;72.19;100179.34;5589594;31;34666;-68
2022/07/27 04:53:14;;;;;;;8.07;3.58;;;;;;;19.83;69.66;100179.69;5589570;31;34146;-68
2022/07/27 04:56:16;;;;;;;8.00;3.80;;;;;;;19.92;73.03;100173.72;5589373;31;34216;-68
2022/07/27 04:59:20;;;;;;;5.95;3.90;;;;;;;20.02;68.81;100166.94;5590026;31;34773;-67
2022/07/27 05:02:25;;;;;;;10.82;4.20;;;;;;;20.21;67.65;100180.03;5588687;31;34266;-67
2022/07/27 05:05:27;;;;;;;5.87;3.97;;;;;;;20.33;67.26;100183.56;5589684;31;34230;-68
2022/07/27 05:08:30;;;;;;;8.45;4.32;;;;;;;20.43;66.83;100190.25;5589319;31;34844;-68
2022/07/27 05:11:34;;;;;;;5.65;3.75;;;;;;;20.52;66.96;100180.75;5589405;31;34407;-67
2022/07/27 05:14:36;;;;;;;4.57;3.90;;;;;;;20.66;66.10;100182.94;5588476;31;34329;-67
2022/07/27 05:17:39;;;;;;;6.28;3.83;;;;;;;20.71;65.47;100190.31;5589162;31;34104;-68
2022/07/27 05:20:42;;;;;;;7.05;4.00;;;;;;;20.76;65.32;100185.84;5589191;31;34270;-67
2022/07/27 05:23:45;;;;;;;4.72;3.70;;;;;;;20.88;65.21;100193.88;5589167;31;34301;-68
2022/07/27 05:26:47;;;;;;;6.78;3.78;;;;;;;20.98;64.13;100190.56;5588910;31;34289;-68
2022/07/27 05:29:50;;;;;;;8.63;3.87;;;;;;;21.12;63.85;100200.84;5588944;31;34249;-68
2022/07/27 05:32:53;;;;;;;5.18;3.60;;;;;;;21.22;63.43;100203.75;5589506;31;34234;-68
2022/07/27 05:35:56;;;;;;;5.18;3.40;;;;;;;21.43;63.90;100209.53;5588627;31;34354;-69
2022/07/27 05:38:58;;;;;;;8.15;3.58;;;;;;;21.52;61.59;100195.41;5588577;31;34251;-68
2022/07/27 05:42:03;;;;;;;8.43;3.50;;;;;;;21.55;61.03;100205.69;5588115;31;32821;-68
2022/07/27 05:45:06;;;;;;;6.07;3.70;;;;;;;21.74;61.95;100208.16;5575174;31;34263;-68
2022/07/27 05:48:09;;;;;;;6.30;3.35;;;;;;;21.78;61.16;100212.84;5588817;31;34189;-68
2022/07/27 05:51:12;;;;;;;6.80;3.33;;;;;;;21.90;60.44;100210.88;5588474;31;34381;-67
2022/07/27 05:54:14;;;;;;;5.82;3.22;;;;;;;21.94;58.69;100217.44;5588653;31;34333;-67
2022/07/27 05:57:17;;;;;;;9.05;3.70;;;;;;;22.06;58.57;100226.31;5588714;31;34945;-67
2022/07/27 06:00:20;;;;;;;5.28;3.37;;;;;;;22.08;58.29;100228.72;5588572;31;34927;-67
2022/07/27 06:03:23;;;;;;;6.07;3.37;;;;;;;22.10;57.86;100219.34;5588648;31;34187;-67
2022/07/27 06:09:47;;;;;;;6.20;2.60;;;;;;;22.06;56.10;100241.69;5588480;31;34196;-66
2022/07/27 06:12:49;;;;;;;5.50;2.53;;;;;;;22.00;56.17;100232.69;5587486;31;35551;-66
2022/07/27 06:15:52;;;;;;;6.78;2.67;;;;;;;22.13;56.35;100241.50;5574843;31;32708;-64
2022/07/27 06:18:55;;;;;;;5.75;2.30;;;;;;;22.20;55.43;100242.16;5588110;31;34194;-66
2022/07/27 06:21:57;;;;;;;5.53;3.03;;;;;;;22.33;55.08;100249.91;5588453;31;35532;-65
2022/07/27 06:25:00;;;;;;;7.97;2.30;;;;;;;22.41;54.77;100253.00;5588303;31;34221;-65
2022/07/27 06:28:04;;;;;;;4.32;2.20;;;;;;;22.50;55.89;100250.72;5588258;31;34895;-64
2022/07/27 06:31:07;;;;;;;5.30;2.40;;;;;;;22.49;54.42;100260.72;5587818;31;34148;-67
2022/07/27 06:34:11;;;;;;;4.30;2.28;;;;;;;22.64;55.20;100265.53;5587726;31;34298;-66
2022/07/27 06:37:16;;;;;;;217.40;15.40;;;;;;;22.75;54.33;100248.38;5587940;31;34281;-67
2022/07/27 06:40:21;;;;;;;6.62;2.33;;;;;;;22.95;52.53;100253.22;5574457;31;33385;-64
2022/07/27 06:43:31;;;;;;;7.70;2.30;;;;;;;22.96;52.11;100250.28;5587611;31;34993;-66
2022/07/27 06:46:34;;;;;;;4.53;1.90;;;;;;;23.04;51.88;100262.56;5587821;31;34197;-66
2022/07/27 06:49:36;;;;;;;4.97;2.35;;;;;;;23.09;50.34;100265.31;5587599;31;34929;-64
2022/07/27 06:52:39;;;;;;;5.47;2.20;;;;;;;22.75;51.74;100256.50;5587921;31;34390;-63
2022/07/27 06:55:42;;;;;;;6.45;2.20;;;;;;;22.81;51.82;100255.50;5586901;31;34318;-65
2022/07/27 06:58:45;;;;;;;4.65;1.90;;;;;;;22.93;51.49;100252.69;5586461;31;34258;-66
2022/07/27 07:01:47;;;;;;;5.72;2.22;;;;;;;23.19;50.98;100256.53;5586709;31;33025;-66
2022/07/27 07:04:50;;;;;;;6.65;2.05;;;;;;;23.29;50.62;100249.31;5587318;31;34944;-64
2022/07/27 07:07:54;;;;;;;3.15;1.90;;;;;;;23.43;50.79;100247.00;5586723;31;32586;-65
2022/07/27 07:10:57;;;;;;;3.03;2.10;;;;;;;23.75;49.47;100249.81;5573394;31;32448;-65
2022/07/27 07:13:59;;;;;;;4.60;2.10;;;;;;;24.10;48.54;100252.81;5586357;31;35156;-65
2022/07/27 07:17:02;;;;;;;5.50;2.28;;;;;;;24.49;47.53;100250.69;5586880;31;34172;-66
2022/07/27 07:20:06;;;;;;;6.87;2.15;;;;;;;24.75;47.61;100256.22;5586993;31;34263;-64
2022/07/27 07:23:10;;;;;;;5.53;1.95;;;;;;;24.55;46.68;100252.31;5586802;31;32897;-67
2022/07/27 07:26:12;;;;;;;4.28;1.45;;;;;;;24.45;45.87;100243.31;5589350;31;34886;-66
2022/07/27 07:29:15;;;;;;;7.32;1.80;;;;;;;25.04;44.81;100243.91;5589485;31;34235;-66
2022/07/27 07:32:21;;;;;;;6.28;2.05;;;;;;;25.63;43.62;100241.63;5590273;31;34216;-67
2022/07/27 07:35:25;;;;;;;3.72;1.80;;;;;;;26.67;42.40;100232.88;5588621;31;32940;-65
2022/07/27 07:38:27;;;;;;;3.78;1.87;;;;;;;26.58;42.07;100239.94;5589720;31;34998;-65
2022/07/27 07:41:30;;;;;;;4.55;1.65;;;;;;;27.01;40.44;100238.47;5589130;31;33606;-66
2022/07/27 07:44:33;;;;;;;5.10;1.52;;;;;;;28.08;37.86;100228.47;5589820;31;34187;-65
2022/07/27 07:47:35;;;;;;;2.28;1.42;;;;;;;26.78;38.87;100234.44;5590027;31;34279;-66
2022/07/27 07:50:38;;;;;;;2.95;1.45;;;;;;;27.78;38.45;100226.03;5589978;31;34829;-65
2022/07/27 07:53:41;;;;;;;2.70;1.50;;;;;;;27.58;37.72;100223.44;5589118;31;33530;-67
2022/07/27 07:56:43;;;;;;;3.85;1.30;;;;;;;28.50;36.98;100225.09;5588929;31;32833;-67
2022/07/27 07:59:46;;;;;;;3.00;1.87;;;;;;;29.34;35.62;100226.25;5589675;31;34690;-66
2022/07/27 08:02:52;;;;;;;3.25;1.50;;;;;;;29.10;34.20;100217.25;5589546;31;35047;-67
2022/07/27 08:05:55;;;;;;;3.60;1.48;;;;;;;29.69;35.15;100219.44;5588851;31;32648;-65
2022/07/27 08:08:58;;;;;;;2.70;1.40;;;;;;;28.35;35.56;100217.06;5590096;31;35544;-66
2022/07/27 08:12:01;;;;;;;4.12;1.50;;;;;;;29.78;34.31;100216.81;5588882;31;32882;-65
2022/07/27 08:15:05;;;;;;;6.70;2.05;;;;;;;29.24;33.85;100215.44;5589739;31;34545;-65
2022/07/27 08:18:09;;;;;;;4.18;1.58;;;;;;;29.41;32.33;100208.66;5589909;31;34425;-65
2022/07/27 08:21:11;;;;;;;4.68;1.40;;;;;;;28.95;33.07;100203.81;5588982;31;33692;-67
2022/07/27 08:24:14;;;;;;;1.87;1.25;;;;;;;30.06;32.09;100207.63;5589071;31;34356;-67
2022/07/27 08:27:17;;;;;;;3.37;1.33;;;;;;;31.14;30.96;100209.87;5589140;31;34719;-65
2022/07/27 08:30:20;;;;;;;4.28;1.52;;;;;;;30.05;31.29;100207.91;5588118;31;33842;-66
2022/07/27 08:33:23;;;;;;;2.00;1.12;;;;;;;30.41;32.00;100205.31;5588539;31;34904;-67
2022/07/27 08:36:27;;;;;;;5.07;1.40;;;;;;;32.40;28.28;100208.72;5586676;31;32587;-63
2022/07/27 08:39:30;;;;;;;3.17;1.40;;;;;;;30.96;29.79;100200.66;5588866;31;34261;-66
2022/07/27 08:42:53;;;;;;;2.37;1.40;;;;;;;31.34;29.60;100199.28;5588046;31;33224;-68
2022/07/27 08:45:58;;;;;;;9.18;1.45;;;;;;;32.69;26.54;100192.53;5588503;31;34940;-67
2022/07/27 08:49:01;;;;;;;1.67;1.00;;;;;;;33.00;26.41;100195.19;5588699;31;33737;-66
2022/07/27 08:52:04;;;;;;;4.32;1.75;;;;;;;33.92;26.36;100191.97;5562944;31;32668;-66
2022/07/27 08:55:08;;;;;;;3.75;1.45;;;;;;;33.01;26.72;100194.06;5588716;31;34691;-65
2022/07/27 08:58:14;;;;;;;3.20;1.70;;;;;;;31.80;28.89;100179.00;5588982;31;34247;-64
2022/07/27 09:01:18;;;;;;;6.85;2.10;;;;;;;31.54;29.25;100186.19;5588413;31;34911;-69
2022/07/27 09:04:24;;;;;;;3.28;2.03;;;;;;;32.31;28.11;100182.03;5588568;31;32728;-65
2022/07/27 09:07:30;;;;;;;3.15;2.30;;;;;;;33.69;25.72;100184.25;5588578;31;34960;-68
2022/07/27 09:10:37;;;;;;;5.28;2.70;;;;;;;34.24;24.35;100182.34;5588838;31;32937;-67
2022/07/27 09:13:40;;;;;;;6.50;1.90;;;;;;;34.00;25.55;100188.38;5588686;31;35529;-68
2022/07/27 09:16:43;;;;;;;3.08;2.28;;;;;;;35.11;22.96;100177.16;5589077;31;34666;-66
2022/07/27 09:20:12;;;;;;;4.65;2.25;;;;;;;36.10;22.73;100181.59;5588080;31;34164;-68
2022/07/27 09:23:26;;;;;;;3.37;2.40;;;;;;;36.02;21.98;100174.22;5589256;31;33749;-67
2022/07/27 09:26:29;;;;;;;4.20;3.25;;;;;;;36.32;22.25;100174.84;5588324;31;32763;-67
2022/07/27 09:29:35;;;;;;;5.20;3.10;;;;;;;34.89;22.40;100170.03;5588894;31;35085;-67
2022/07/27 09:32:55;;;;;;;4.57;2.70;;;;;;;34.53;23.76;100167.78;5588067;31;34021;-68
2022/07/27 09:35:58;;;;;;;6.87;3.10;;;;;;;36.16;22.72;100173.94;5589200;31;34333;-67
2022/07/27 09:39:07;;;;;;;4.75;2.97;;;;;;;35.78;22.33;100165.09;5589361;31;34226;-67
2022/07/27 09:42:16;;;;;;;6.28;2.92;;;;;;;35.50;22.41;100167.59;5589089;31;34555;-66
2022/07/27 09:45:44;;;;;;;6.00;3.25;;;;;;;36.69;20.81;100167.41;5578295;31;33517;-66
2022/07/27 09:48:59;;;;;;;6.12;3.90;;;;;;;37.04;20.34;100164.12;5587787;31;34319;-67
2022/07/27 09:52:02;;;;;;;6.20;4.57;;;;;;;36.80;20.82;100163.00;5588014;31;33445;-67
2022/07/27 09:55:06;;;;;;;7.70;5.12;;;;;;;36.39;19.66;100158.53;5588796;31;34688;-66
2022/07/27 09:58:09;;;;;;;9.00;5.43;;;;;;;36.42;19.15;100151.50;5588214;31;32901;-67
2022/07/27 10:01:21;;;;;;;;;;;;;;;34.97;20.20;100163.63;5589235;31;34905;-64
2022/07/27 10:04:25;;;;;;;8.07;5.57;;;;;;;33.49;21.17;100160.94;5588640;31;34601;-66
2022/07/27 10:07:28;;;;;;;7.62;6.37;;;;;;;34.94;21.32;100164.31;5587961;31;33626;-67
2022/07/27 10:10:31;;;;;;;7.47;6.40;;;;;;;34.93;20.45;100162.69;5588012;31;32737;-65
2022/07/27 10:13:34;;;;;;;11.18;6.03;;;;;;;34.82;20.62;100162.28;5587922;31;33711;-66
2022/07/27 10:16:49;;;;;;;7.70;5.28;;;;;;;36.58;17.76;100157.94;5587655;31;33107;-69
2022/07/27 10:19:52;;;;;;;8.00;5.10;;;;;;;37.30;18.36;100156.22;5587444;31;34312;-68
2022/07/27 10:23:00;;;;;;;6.97;5.05;;;;;;;37.28;17.99;100156.56;5587965;31;32889;-68
2022/07/27 10:26:16;;;;;;;5.40;4.40;;;;;;;38.50;16.49;100158.63;5588488;31;34330;-67
2022/07/27 10:29:21;;;;;;;7.60;4.70;;;;;;;36.96;17.11;100152.84;5587992;31;34118;-67
2022/07/27 10:32:27;;;;;;;7.43;4.07;;;;;;;38.50;16.48;100151.12;5588316;31;34962;-67
2022/07/27 10:35:32;;;;;;;8.23;4.40;;;;;;;36.83;17.08;100139.38;5588262;31;35467;-66
2022/07/27 10:38:50;;;;;;;4.57;3.92;;;;;;;37.13;17.79;100139.91;5588120;31;34303;-67
2022/07/27 10:42:39;;;;;;;5.32;3.47;;;;;;;39.47;15.45;100140.97;5587970;31;34602;-67
2022/07/27 10:45:50;;;;;;;5.72;3.30;;;;;;;40.19;14.84;100139.13;5584830;31;32730;-66
2022/07/27 10:49:18;;;;;;;5.62;3.00;;;;;;;37.44;16.20;100146.34;5587904;31;34906;-66
2022/07/27 10:52:40;;;;;;;3.50;2.78;;;;;;;36.35;17.43;100135.50;5587359;31;33463;-67
2022/07/27 10:55:44;;;;;;;3.35;2.80;;;;;;;37.22;16.81;100129.50;5587212;31;33087;-66
2022/07/27 10:58:49;;;;;;;5.05;3.40;;;;;;;36.34;18.36;100133.09;5587594;31;34451;-67
2022/07/27 11:01:56;;;;;;;3.83;3.15;;;;;;;39.09;15.57;100130.66;5590263;31;35482;-68
2022/07/27 11:05:03;;;;;;;8.82;3.10;;;;;;;41.03;14.65;100130.50;5589796;31;33884;-67
2022/07/27 11:08:06;;;;;;;5.70;3.30;;;;;;;40.18;14.58;100120.03;5590613;31;34205;-67
2022/07/27 11:11:29;;;;;;;7.05;3.10;;;;;;;41.07;13.83;100122.19;5589540;31;33625;-66
2022/07/27 11:14:45;;;;;;;3.65;2.65;;;;;;;40.86;14.19;100124.69;5589597;31;35024;-65
2022/07/27 11:17:49;;;;;;;4.03;3.05;;;;;;;39.35;14.37;100114.19;5576569;31;32758;-65
2022/07/27 11:21:16;;;;;;;5.62;3.40;;;;;;;39.43;15.43;100104.00;5590540;31;34209;-65
2022/07/27 11:24:27;;;;;;;7.28;2.83;;;;;;;40.87;14.85;100102.03;5577484;31;33359;-64
2022/07/27 11:27:30;;;;;;;5.90;2.92;;;;;;;39.02;15.71;100103.56;5589658;31;33331;-66
2022/07/27 11:30:33;;;;;;;3.50;2.50;;;;;;;40.08;15.74;100093.69;5589656;31;34132;-64
2022/07/27 11:33:48;;;;;;;4.57;2.70;;;;;;;42.81;13.58;100108.66;5589848;31;34152;-66
2022/07/27 11:36:51;;;;;;;3.67;2.72;;;;;;;42.69;12.83;100097.84;5590368;31;34397;-65
2022/07/27 11:39:58;;;;;;;5.43;2.55;;;;;;;40.72;14.30;100103.81;5589360;31;33371;-66
2022/07/27 11:43:41;;;;;;;4.93;2.35;;;;;;;39.89;14.70;100093.78;5590032;31;35067;-65
2022/07/27 11:46:49;;;;;;;4.07;2.50;;;;;;;39.69;14.87;100098.56;5588973;31;33316;-65
2022/07/27 11:49:52;;;;;;;8.30;2.47;;;;;;;42.27;12.96;100091.97;5589989;31;34495;-66
2022/07/27 11:52:56;;;;;;;4.53;2.20;;;;;;;42.33;12.69;100087.63;5589530;31;32682;-66
2022/07/27 11:56:11;;;;;;;3.00;2.45;;;;;;;44.05;11.96;100089.44;5590036;31;34860;-66
2022/07/27 11:59:33;;;;;;;4.28;1.92;;;;;;;44.63;12.21;100090.12;5588881;31;34329;-66
2022/07/27 12:02:36;;;;;;;3.55;2.10;;;;;;;44.44;10.89;100069.00;5589303;31;32721;-67
2022/07/27 12:05:39;;;;;;;2.67;1.83;;;;;;;44.86;11.19;100079.28;5590088;31;34235;-65
2022/07/27 12:08:42;;;;;;;5.65;2.25;;;;;;;39.41;14.55;100075.84;5589963;31;34164;-65
2022/07/27 12:11:57;;;;;;;2.75;2.05;;;;;;;41.61;13.94;100079.84;5588823;31;33978;-65
2022/07/27 12:15:01;;;;;;;2.80;1.95;;;;;;;42.32;13.69;100066.50;5589923;31;34278;-65
2022/07/27 12:18:23;;;;;;;4.20;2.05;;;;;;;40.94;13.05;100059.56;5588501;31;33300;-67
2022/07/27 12:21:26;;;;;;;3.58;2.00;;;;;;;44.21;11.77;100052.62;5588994;31;34144;-68
2022/07/27 12:24:40;;;;;;;;;;;;;;;42.61;12.55;100051.50;5589732;31;34262;-67
2022/07/27 12:27:57;;;;;;;2.10;1.75;;;;;;;45.18;11.24;100048.31;5589827;31;34671;-68
2022/07/27 12:31:01;;;;;;;4.22;2.00;;;;;;;45.32;10.84;100049.03;5589132;31;34196;-66
2022/07/27 12:34:05;;;;;;;2.30;2.10;;;;;;;43.67;12.75;100043.47;5588967;31;32733;-65
2022/07/27 12:37:12;;;;;;;6.05;2.03;;;;;;;41.30;14.15;100038.53;5589050;31;33858;-67
2022/07/27 12:40:16;;;;;;;4.35;2.40;;;;;;;44.99;11.58;100044.81;5588889;31;34479;-67
2022/07/27 12:43:23;;;;;;;4.15;1.90;;;;;;;40.46;14.25;100039.06;5589745;31;34221;-67
2022/07/27 12:46:26;;;;;;;2.87;2.20;;;;;;;41.09;13.63;100033.53;5589903;31;34817;-67
2022/07/27 12:49:36;;;;;;;3.28;2.30;;;;;;;43.56;12.56;100027.94;5588991;31;34893;-65
2022/07/27 12:52:49;;;;;;;2.67;2.22;;;;;;;43.43;12.56;100027.47;5588718;31;34395;-66
2022/07/27 12:55:56;;;;;;;4.20;2.35;;;;;;;42.21;12.58;100032.16;5590054;31;34120;-66
2022/07/27 12:59:00;;;;;;;2.45;2.08;;;;;;;45.16;11.54;100026.34;5589664;31;34862;-67
2022/07/27 13:02:03;;;;;;;3.22;2.35;;;;;;;44.15;11.20;100026.31;5589930;31;34634;-66
2022/07/27 13:05:08;;;;;;;3.40;1.95;;;;;;;43.61;11.90;100019.16;5589141;31;33602;-65
2022/07/27 13:08:11;;;;;;;2.40;1.90;;;;;;;44.33;10.90;100018.69;5589636;31;34314;-68
2022/07/27 13:11:18;;;;;;;3.85;2.12;;;;;;;46.28;9.89;100016.59;5589670;31;35102;-66
2022/07/27 13:14:21;;;;;;;2.92;1.90;;;;;;;45.31;10.57;100015.84;5588506;31;34428;-66
2022/07/27 13:17:23;;;;;;;4.07;2.70;;;;;;;47.11;10.09;100013.13;5589296;31;34810;-65
2022/07/27 13:20:26;;;;;;;2.87;1.80;;;;;;;45.15;10.56;100001.53;5589330;31;34117;-66
2022/07/27 13:23:29;;;;;;;2.95;2.00;;;;;;;46.79;10.18;100005.16;5587555;31;33970;-66
2022/07/27 13:26:32;;;;;;;4.35;1.95;;;;;;;46.76;9.92;100011.62;5588461;31;32579;-65
2022/07/27 13:29:34;;;;;;;4.35;1.95;;;;;;;44.29;11.35;100005.91;5588342;31;34879;-65
2022/07/27 13:32:38;;;;;;;3.30;1.58;;;;;;;43.42;11.51;100008.34;5575833;31;34371;-66
2022/07/27 13:35:41;;;;;;;3.20;1.70;;;;;;;46.30;10.72;99998.12;5589182;31;34296;-66
2022/07/27 13:38:44;;;;;;;3.75;1.70;;;;;;;48.16;9.21;99998.53;5575723;31;33414;-67
2022/07/27 13:41:51;;;;;;;2.92;2.08;;;;;;;48.92;8.37;99985.28;5588194;31;34249;-66
2022/07/27 13:45:00;;;;;;;2.65;1.95;;;;;;;47.43;9.49;99982.53;5589418;31;34259;-66
2022/07/27 13:48:11;;;;;;;3.25;1.98;;;;;;;48.26;9.33;99972.19;5588561;31;34995;-67
2022/07/27 13:51:14;;;;;;;9.38;2.00;;;;;;;48.76;8.71;99977.59;5589055;31;34245;-64
2022/07/27 13:54:17;;;;;;;6.68;1.83;;;;;;;44.90;11.17;99968.88;5588288;31;33271;-66
2022/07/27 13:57:20;;;;;;;4.12;1.95;;;;;;;46.65;9.57;99974.47;5587859;31;32722;-66
2022/07/27 14:00:23;;;;;;;4.15;1.87;;;;;;;48.01;9.38;99963.47;5588870;31;34902;-66
2022/07/27 14:03:25;;;;;;;2.70;1.55;;;;;;;49.63;8.53;99967.44;5588857;31;34326;-67
2022/07/27 14:06:34;;;;;;;2.65;1.67;;;;;;;48.91;8.42;99966.78;5588669;31;34236;-67
2022/07/27 14:13:03;;;;;;;2.70;1.58;;;;;;;45.20;10.45;99957.09;5587915;31;32734;-67
2022/07/27 14:16:10;;;;;;;3.92;1.87;;;;;;;47.16;9.73;99958.50;5588522;31;34250;-67
2022/07/27 14:19:12;;;;;;;2.03;1.65;;;;;;;46.47;10.13;99945.81;5588420;31;35558;-66
2022/07/27 14:22:16;;;;;;;3.58;1.70;;;;;;;45.94;10.42;99946.44;5588469;31;34350;-65
2022/07/27 14:25:19;;;;;;;3.85;1.65;;;;;;;46.11;9.97;99940.63;5587416;31;33110;-67
2022/07/27 14:28:23;;;;;;;2.33;1.70;;;;;;;46.84;9.65;99937.28;5587417;31;34296;-66
2022/07/27 14:31:26;;;;;;;2.42;1.62;;;;;;;44.12;11.42;99937.63;5586756;31;33764;-66
2022/07/27 14:34:29;;;;;;;2.72;1.80;;;;;;;39.52;14.75;99927.69;5588154;31;33987;-65